createdAt,value
2022-08-02T00:02:39.424Z,8.45
2022-08-02T00:05:24.009Z,7.45
2022-08-02T00:08:09.329Z,8.02
2022-08-02T00:10:54.555Z,9.32
2022-08-02T00:13:39.520Z,8.50
2022-08-02T00:16:37.509Z,8.23
2022-08-02T00:19:23.183Z,7.28
2022-08-02T00:22:08.877Z,8.13
2022-08-02T00:24:54.137Z,7.38
2022-08-02T00:27:39.230Z,7.85
2022-08-02T00:30:24.093Z,7.07
2022-08-02T00:33:09.066Z,7.88
2022-08-02T00:35:53.912Z,6.72
2022-08-02T00:38:39.076Z,8.05
2022-08-02T00:41:23.965Z,8.15
2022-08-02T00:44:08.917Z,6.60
2022-08-02T00:46:56.758Z,8.70
2022-08-02T00:49:41.793Z,9.40
2022-08-02T00:52:26.847Z,7.65
2022-08-02T00:55:11.796Z,7.82
2022-08-02T00:57:56.976Z,8.95
2022-08-02T01:00:45.420Z,8.02
2022-08-02T01:03:30.664Z,6.03
2022-08-02T01:06:16.290Z,7.32
2022-08-02T01:09:02.716Z,7.07
2022-08-02T01:11:47.515Z,7.22
2022-08-02T01:14:32.569Z,7.55
2022-08-02T01:17:17.258Z,7.63
2022-08-02T01:20:20.449Z,6.57
2022-08-02T01:23:24.715Z,7.43
2022-08-02T01:26:38.104Z,7.82
2022-08-02T01:29:30.200Z,6.40
2022-08-02T01:32:18.840Z,7.28
2022-08-02T01:35:15.359Z,7.07
2022-08-02T01:38:14.284Z,7.88
2022-08-02T01:41:02.153Z,7.32
2022-08-02T01:43:50.878Z,7.43
2022-08-02T01:46:39.178Z,8.60
2022-08-02T01:49:29.155Z,7.50
2022-08-02T01:52:22.072Z,7.07
2022-08-02T01:55:09.853Z,6.80
2022-08-02T01:58:06.324Z,6.45
2022-08-02T02:00:52.947Z,6.75
2022-08-02T02:03:41.434Z,6.88
2022-08-02T02:06:27.533Z,8.02
2022-08-02T02:09:14.795Z,9.55
2022-08-02T02:12:09.410Z,8.52
2022-08-02T02:15:00.587Z,6.82
2022-08-02T02:18:11.243Z,8.25
2022-08-02T02:20:53.620Z,7.40
2022-08-02T02:23:38.566Z,8.07
2022-08-02T02:26:30.971Z,7.68
2022-08-02T02:29:19.929Z,7.90
2022-08-02T02:32:06.158Z,7.82
2022-08-02T02:34:52.936Z,7.93
2022-08-02T02:37:39.840Z,7.95
2022-08-02T02:40:26.889Z,8.05
2022-08-02T02:43:13.351Z,8.85
2022-08-02T02:45:59.136Z,9.13
2022-08-02T02:48:44.696Z,11.02
2022-08-02T02:51:30.788Z,9.73
2022-08-02T02:54:33.118Z,8.68
2022-08-02T02:57:21.404Z,8.60
2022-08-02T03:00:10.249Z,8.38
2022-08-02T03:02:56.072Z,8.73
2022-08-02T03:05:41.187Z,8.70
2022-08-02T03:08:26.342Z,8.63
2022-08-02T03:11:11.871Z,9.18
2022-08-02T03:14:02.781Z,9.80
2022-08-02T03:16:52.445Z,10.43
2022-08-02T03:19:38.796Z,10.13
2022-08-02T03:22:23.510Z,10.57
2022-08-02T03:25:09.697Z,9.27
2022-08-02T03:27:54.449Z,11.63
2022-08-02T03:30:39.432Z,9.15
2022-08-02T03:33:25.802Z,8.55
2022-08-02T03:36:14.584Z,10.98
2022-08-02T03:39:01.930Z,12.18
2022-08-02T03:41:48.892Z,8.93
2022-08-02T03:44:34.859Z,10.25
2022-08-02T03:47:21.200Z,10.50
2022-08-02T03:50:10.888Z,9.48
2022-08-02T03:52:56.997Z,8.38
2022-08-02T03:55:42.407Z,11.10
2022-08-02T03:58:27.332Z,11.70
2022-08-02T04:01:12.120Z,9.07
2022-08-02T04:03:56.859Z,10.73
2022-08-02T04:06:41.957Z,8.05
2022-08-02T04:09:27.101Z,8.82
2022-08-02T04:12:12.511Z,9.80
2022-08-02T04:14:59.216Z,13.25
2022-08-02T04:17:50.184Z,8.60
2022-08-02T04:20:36.531Z,10.15
2022-08-02T04:23:24.977Z,9.27
2022-08-02T04:26:12.020Z,9.05
2022-08-02T04:28:59.254Z,9.00
2022-08-02T04:31:45.237Z,8.85
2022-08-02T04:34:30.959Z,9.07
2022-08-02T04:37:16.056Z,8.60
2022-08-02T04:40:00.983Z,8.30
2022-08-02T04:42:46.151Z,8.18
2022-08-02T04:45:31.962Z,6.82
2022-08-02T04:48:16.656Z,10.00
2022-08-02T04:51:01.559Z,7.95
2022-08-02T04:53:46.658Z,7.93
2022-08-02T04:56:31.626Z,8.50
2022-08-02T04:59:16.351Z,8.52
2022-08-02T05:02:01.339Z,7.85
2022-08-02T05:04:46.612Z,9.88
2022-08-02T05:07:31.696Z,8.48
2022-08-02T05:10:22.948Z,9.32
2022-08-02T05:13:07.799Z,6.78
2022-08-02T05:15:53.030Z,9.50
2022-08-02T05:18:37.956Z,8.55
2022-08-02T05:21:22.951Z,8.35
2022-08-02T05:24:08.185Z,6.70
2022-08-02T05:26:52.825Z,7.40
2022-08-02T05:29:37.734Z,8.25
2022-08-02T05:32:23.788Z,9.40
2022-08-02T05:35:11.097Z,5.53
2022-08-02T05:37:55.922Z,7.03
2022-08-02T05:40:54.624Z,6.85
2022-08-02T05:43:39.836Z,6.20
2022-08-02T05:46:24.991Z,6.47
2022-08-02T05:49:09.965Z,5.93
2022-08-02T05:52:14.426Z,6.53
2022-08-02T05:55:10.053Z,5.10
2022-08-02T05:58:17.675Z,7.10
2022-08-02T06:01:04.877Z,4.63
2022-08-02T06:03:56.877Z,4.75
2022-08-02T06:06:43.751Z,5.07
2022-08-02T06:09:29.042Z,4.88
2022-08-02T06:12:16.839Z,4.82
2022-08-02T06:15:05.402Z,8.25
2022-08-02T06:17:52.164Z,5.15
2022-08-02T06:20:37.181Z,5.47
2022-08-02T06:23:22.948Z,4.90
2022-08-02T06:26:13.070Z,4.95
2022-08-02T06:28:58.292Z,5.28
2022-08-02T06:31:45.264Z,5.18
2022-08-02T06:34:30.337Z,6.57
2022-08-02T06:37:40.629Z,5.30
2022-08-02T06:40:35.335Z,4.85
2022-08-02T06:43:41.461Z,4.55
2022-08-02T06:46:37.749Z,4.47
2022-08-02T06:49:51.914Z,5.00
2022-08-02T06:52:37.190Z,4.53
2022-08-02T06:55:22.172Z,4.05
2022-08-02T06:58:06.934Z,5.32
2022-08-02T07:00:51.943Z,7.03
2022-08-02T07:03:38.601Z,5.82
2022-08-02T07:06:23.449Z,6.38
2022-08-02T07:09:20.611Z,4.95
2022-08-02T07:12:06.125Z,4.22
2022-08-02T07:14:51.371Z,5.65
2022-08-02T07:17:36.235Z,5.38
2022-08-02T07:20:21.135Z,6.00
2022-08-02T07:23:05.946Z,5.40
2022-08-02T07:26:02.762Z,4.07
2022-08-02T07:28:48.507Z,5.88
2022-08-02T07:31:33.316Z,4.93
2022-08-02T07:34:18.335Z,5.88
2022-08-02T07:37:03.431Z,5.80
2022-08-02T07:39:48.262Z,4.65
2022-08-02T07:42:33.768Z,4.80
2022-08-02T07:45:20.253Z,5.38
2022-08-02T07:48:05.464Z,4.70
2022-08-02T07:50:50.354Z,4.55
2022-08-02T07:53:50.697Z,5.68
2022-08-02T07:56:40.305Z,4.07
2022-08-02T07:59:25.232Z,4.40
2022-08-02T08:02:10.869Z,4.40
2022-08-02T08:04:56.150Z,10.02
2022-08-02T08:07:40.879Z,5.25
2022-08-02T08:10:26.029Z,5.10
2022-08-02T08:13:10.894Z,4.15
2022-08-02T08:15:56.209Z,3.60
2022-08-02T08:18:41.042Z,5.90
2022-08-02T08:21:25.928Z,5.32
2022-08-02T08:24:10.897Z,4.43
2022-08-02T08:26:56.596Z,5.03
2022-08-02T08:29:42.328Z,5.10
2022-08-02T08:32:26.966Z,5.22
2022-08-02T08:35:13.167Z,5.43
2022-08-02T08:37:58.414Z,4.40
2022-08-02T08:40:44.166Z,3.88
2022-08-02T08:43:29.126Z,4.35
2022-08-02T08:46:31.471Z,5.03
2022-08-02T08:49:34.532Z,5.80
2022-08-02T08:52:23.362Z,4.47
2022-08-02T08:55:12.279Z,4.53
2022-08-02T08:57:59.810Z,3.92
2022-08-02T09:00:46.428Z,4.68
2022-08-02T09:03:33.993Z,4.43
2022-08-02T09:06:19.880Z,4.38
2022-08-02T09:09:04.837Z,2.88
2022-08-02T09:11:50.140Z,4.07
2022-08-02T09:14:34.926Z,4.38
2022-08-02T09:17:21.456Z,3.80
2022-08-02T09:20:08.082Z,5.53
2022-08-02T09:23:10.067Z,2.88
2022-08-02T09:28:49.429Z,4.10
2022-08-02T09:31:34.841Z,4.43
2022-08-02T09:34:19.927Z,3.90
2022-08-02T09:37:05.064Z,3.13
2022-08-02T09:39:50.139Z,3.38
2022-08-02T09:42:58.780Z,5.22
2022-08-02T09:45:43.757Z,4.47
2022-08-02T09:48:28.660Z,4.10
2022-08-02T09:51:20.968Z,4.05
2022-08-02T09:54:15.415Z,3.22
2022-08-02T09:57:01.628Z,4.97
2022-08-02T09:59:53.050Z,4.75
2022-08-02T10:02:37.953Z,3.75
2022-08-02T10:05:22.778Z,7.70
2022-08-02T10:08:08.179Z,5.15
2022-08-02T10:11:01.650Z,3.70
2022-08-02T10:13:47.812Z,4.53
2022-08-02T10:16:34.845Z,6.72
2022-08-02T10:20:00.921Z,4.35
2022-08-02T10:22:25.210Z,4.15
2022-08-02T10:25:10.901Z,5.00
2022-08-02T10:28:05.225Z,3.58
2022-08-02T10:30:53.581Z,3.25
2022-08-02T10:33:39.095Z,3.92
2022-08-02T10:36:26.577Z,4.13
2022-08-02T10:39:12.432Z,4.35
2022-08-02T10:41:57.447Z,3.10
2022-08-02T10:44:43.429Z,4.32
2022-08-02T10:47:29.747Z,4.38
2022-08-02T10:50:14.550Z,8.73
2022-08-02T10:53:25.435Z,4.70
2022-08-02T10:56:10.990Z,5.88
2022-08-02T10:59:25.628Z,4.30
2022-08-02T11:02:11.924Z,4.72
2022-08-02T11:04:56.622Z,3.13
2022-08-02T11:07:49.916Z,4.70
2022-08-02T11:10:38.614Z,3.83
2022-08-02T11:13:25.749Z,4.18
2022-08-02T11:16:12.009Z,6.05
2022-08-02T11:18:56.992Z,3.40
2022-08-02T11:22:02.900Z,2.75
2022-08-02T11:24:47.604Z,4.93
2022-08-02T11:27:32.769Z,2.92
2022-08-02T11:30:18.850Z,3.00
2022-08-02T11:33:03.937Z,5.43
2022-08-02T11:35:48.832Z,2.60
2022-08-02T11:38:34.090Z,3.75
2022-08-02T11:41:47.395Z,2.78
2022-08-02T11:44:29.679Z,3.20
2022-08-02T11:47:14.763Z,2.85
2022-08-02T11:50:10.414Z,6.68
2022-08-02T11:52:55.108Z,3.55
2022-08-02T11:55:40.130Z,5.78
2022-08-02T11:58:24.859Z,3.75
2022-08-02T12:01:09.960Z,3.83
2022-08-02T12:03:58.221Z,2.63
2022-08-02T12:06:43.359Z,3.25
2022-08-02T12:09:30.220Z,5.75
2022-08-02T12:12:15.439Z,3.28
2022-08-02T12:15:00.450Z,2.65
2022-08-02T12:18:05.301Z,2.65
2022-08-02T12:20:50.368Z,3.78
2022-08-02T12:24:00.688Z,2.95
2022-08-02T12:26:47.373Z,2.65
2022-08-02T12:29:58.182Z,2.67
2022-08-02T12:32:40.520Z,3.25
2022-08-02T12:35:30.240Z,4.25
2022-08-02T12:41:31.459Z,4.07
2022-08-02T12:44:17.153Z,2.70
2022-08-02T12:47:11.672Z,3.05
2022-08-02T12:50:30.577Z,2.97
2022-08-02T12:53:17.367Z,3.83
2022-08-02T12:56:03.860Z,4.18
2022-08-02T12:58:50.039Z,5.20
2022-08-02T13:01:35.407Z,2.72
2022-08-02T13:04:20.706Z,3.65
2022-08-02T13:07:05.632Z,3.10
2022-08-02T13:09:51.804Z,6.68
2022-08-02T13:12:48.247Z,3.28
2022-08-02T13:15:49.967Z,3.40
2022-08-02T13:18:35.921Z,7.50
2022-08-02T13:21:39.901Z,4.93
2022-08-02T13:24:40.227Z,2.83
2022-08-02T13:27:31.589Z,4.35
2022-08-02T13:30:16.956Z,3.38
2022-08-02T13:33:02.191Z,3.65
2022-08-02T13:35:47.817Z,3.17
2022-08-02T13:38:32.809Z,4.25
2022-08-02T13:41:17.735Z,3.97
2022-08-02T13:44:09.994Z,3.95
2022-08-02T13:46:55.892Z,3.83
2022-08-02T13:49:50.702Z,5.03
2022-08-02T13:52:37.805Z,4.72
2022-08-02T13:55:22.771Z,4.82
2022-08-02T13:58:07.746Z,3.15
2022-08-02T14:00:52.701Z,3.67
2022-08-02T14:04:08.310Z,3.35
2022-08-02T14:06:42.723Z,4.05
2022-08-02T14:09:27.796Z,2.53
2022-08-02T14:12:12.995Z,3.38
2022-08-02T14:14:58.289Z,4.45
2022-08-02T14:17:43.218Z,5.13
2022-08-02T14:20:30.320Z,3.70
2022-08-02T14:23:15.438Z,5.00
2022-08-02T14:26:00.501Z,5.45
2022-08-02T14:28:45.610Z,8.20
2022-08-02T14:31:38.971Z,4.43
2022-08-02T14:34:27.470Z,3.25
2022-08-02T14:37:12.120Z,4.63
2022-08-02T14:40:00.186Z,3.63
2022-08-02T14:42:46.190Z,4.35
2022-08-02T14:45:40.581Z,3.45
2022-08-02T14:48:26.301Z,4.13
2022-08-02T14:51:12.889Z,4.55
2022-08-02T14:54:02.861Z,3.30
2022-08-02T14:56:48.885Z,4.72
2022-08-02T14:59:33.900Z,4.85
2022-08-02T15:02:18.936Z,2.45
2022-08-02T15:05:03.835Z,3.38
2022-08-02T15:07:49.778Z,3.42
2022-08-02T15:10:34.723Z,3.15
2022-08-02T15:13:19.522Z,3.28
2022-08-02T15:16:05.161Z,2.38
2022-08-02T15:18:49.917Z,3.80
2022-08-02T15:21:41.982Z,3.95
2022-08-02T15:24:37.211Z,4.18
2022-08-02T15:27:22.393Z,3.20
2022-08-02T15:30:08.345Z,3.28
2022-08-02T15:32:53.886Z,3.92
2022-08-02T15:35:38.948Z,3.10
2022-08-02T15:38:23.889Z,3.17
2022-08-02T15:41:09.159Z,3.95
2022-08-02T15:44:00.818Z,3.35
2022-08-02T15:46:46.141Z,4.63
2022-08-02T15:49:31.068Z,4.35
2022-08-02T15:52:16.338Z,3.35
2022-08-02T15:55:07.094Z,4.20
2022-08-02T15:57:52.517Z,2.78
2022-08-02T16:00:37.458Z,3.35
2022-08-02T16:03:22.303Z,4.78
2022-08-02T16:06:07.955Z,5.38
2022-08-02T16:08:54.582Z,3.08
2022-08-02T16:11:39.863Z,2.88
2022-08-02T16:14:25.139Z,4.28
2022-08-02T16:17:09.793Z,3.50
2022-08-02T16:19:57.586Z,5.55
2022-08-02T16:22:42.678Z,3.85
2022-08-02T16:25:27.639Z,4.60
2022-08-02T16:28:12.580Z,3.10
2022-08-02T16:31:10.417Z,4.45
2022-08-02T16:33:57.273Z,4.07
2022-08-02T16:36:42.922Z,5.13
2022-08-02T16:39:28.997Z,4.28
2022-08-02T16:42:16.777Z,4.68
2022-08-02T16:45:10.060Z,7.88
2022-08-02T16:48:03.688Z,4.00
2022-08-02T16:50:50.786Z,2.88
2022-08-02T16:53:36.942Z,3.72
2022-08-02T16:56:22.679Z,5.97
2022-08-02T16:59:08.045Z,4.78
2022-08-02T17:02:03.345Z,3.92
2022-08-02T17:04:57.130Z,5.38
2022-08-02T17:08:10.341Z,2.97
2022-08-02T17:10:47.834Z,3.17
2022-08-02T17:13:34.314Z,8.05
2022-08-02T17:16:25.532Z,4.03
2022-08-02T17:19:11.420Z,4.85
2022-08-02T17:21:56.393Z,4.20
2022-08-02T17:24:41.854Z,3.22
2022-08-02T17:27:27.348Z,6.85
2022-08-02T17:30:13.262Z,3.55
2022-08-02T17:36:03.145Z,4.35
2022-08-02T17:38:50.141Z,4.88
2022-08-02T17:41:39.663Z,2.83
2022-08-02T17:44:37.376Z,3.60
2022-08-02T17:47:30.958Z,3.30
2022-08-02T17:50:15.987Z,4.63
2022-08-02T17:53:01.672Z,3.60
2022-08-02T17:55:50.923Z,4.25
2022-08-02T17:58:36.137Z,5.32
2022-08-02T18:01:41.822Z,3.58
2022-08-02T18:04:37.844Z,4.28
2022-08-02T18:07:24.996Z,4.20
2022-08-02T18:10:10.180Z,4.60
2022-08-02T18:12:57.304Z,3.63
2022-08-02T18:15:45.764Z,4.13
2022-08-02T18:18:30.677Z,3.58
2022-08-02T18:21:22.566Z,4.38
2022-08-02T18:24:08.558Z,5.32
2022-08-02T18:26:56.108Z,3.15
2022-08-02T18:29:40.900Z,3.97
2022-08-02T18:33:56.090Z,4.25
2022-08-02T18:35:30.597Z,4.90
2022-08-02T18:38:20.524Z,5.47
2022-08-02T18:41:06.523Z,4.32
2022-08-02T18:43:57.806Z,8.00
2022-08-02T18:46:45.162Z,5.35
2022-08-02T18:49:46.205Z,4.78
2022-08-02T18:52:32.814Z,4.38
2022-08-02T18:55:59.432Z,4.05
2022-08-02T18:58:23.985Z,4.22
2022-08-02T19:01:15.061Z,4.35
2022-08-02T19:04:08.611Z,3.90
2022-08-02T19:06:53.433Z,4.13
2022-08-02T19:09:40.167Z,3.33
2022-08-02T19:12:26.040Z,3.85
2022-08-02T19:15:16.361Z,5.47
2022-08-02T19:18:02.164Z,4.97
2022-08-02T19:20:48.594Z,4.78
2022-08-02T19:23:33.716Z,3.22
2022-08-02T19:26:18.605Z,4.63
2022-08-02T19:29:08.534Z,5.28
2022-08-02T19:31:59.990Z,4.47
2022-08-02T19:34:47.326Z,4.47
2022-08-02T19:37:37.096Z,4.55
2022-08-02T19:40:24.277Z,5.38
2022-08-02T19:44:23.975Z,4.50
2022-08-02T19:46:15.855Z,5.18
2022-08-02T19:49:01.186Z,6.13
2022-08-02T19:52:01.990Z,6.00
2022-08-02T19:56:01.510Z,4.47
2022-08-02T19:58:11.332Z,3.70
2022-08-02T20:00:56.283Z,4.47
2022-08-02T20:03:52.808Z,5.03
2022-08-02T20:06:38.501Z,4.72
2022-08-02T20:09:27.608Z,3.70
2022-08-02T20:12:19.438Z,5.05
2022-08-02T20:15:07.666Z,7.45
2022-08-02T20:17:59.304Z,5.38
2022-08-02T20:20:45.819Z,4.65
2022-08-02T20:23:32.534Z,5.00
2022-08-02T20:26:18.778Z,5.05
2022-08-02T20:29:08.045Z,5.10
2022-08-02T20:31:52.807Z,4.28
2022-08-02T20:34:37.906Z,6.10
2022-08-02T20:40:27.992Z,4.65
2022-08-02T20:43:12.766Z,4.88
2022-08-02T20:45:59.841Z,3.53
2022-08-02T20:48:45.076Z,6.13
2022-08-02T20:51:33.648Z,4.32
2022-08-02T20:54:21.363Z,4.35
2022-08-02T20:57:06.470Z,4.45
2022-08-02T20:59:52.669Z,4.88
2022-08-02T21:02:39.721Z,4.03
2022-08-02T21:05:26.750Z,5.38
2022-08-02T21:08:28.626Z,3.92
2022-08-02T21:11:14.162Z,4.60
2022-08-02T21:14:07.449Z,5.35
2022-08-02T21:16:53.603Z,4.70
2022-08-02T21:19:44.242Z,5.10
2022-08-02T21:22:29.171Z,8.27
2022-08-02T21:25:15.810Z,6.97
2022-08-02T21:28:00.749Z,6.45
2022-08-02T21:30:47.664Z,4.38
2022-08-02T21:33:57.870Z,8.27
2022-08-02T21:36:37.658Z,4.13
2022-08-02T21:39:25.340Z,4.82
2022-08-02T21:42:10.300Z,4.55
2022-08-02T21:45:16.908Z,5.57
2022-08-02T21:48:02.413Z,4.03
2022-08-02T21:50:47.363Z,4.85
2022-08-02T21:53:42.038Z,4.13
2022-08-02T21:56:27.980Z,4.10
2022-08-02T21:59:15.739Z,4.60
2022-08-02T22:02:01.513Z,5.13
2022-08-02T22:04:47.663Z,7.38
2022-08-02T22:07:51.375Z,4.18
2022-08-02T22:10:56.687Z,7.22
2022-08-02T22:13:47.761Z,4.70
2022-08-02T22:16:34.787Z,4.32
2022-08-02T22:19:21.253Z,4.85
2022-08-02T22:22:06.195Z,4.82
2022-08-02T22:24:51.416Z,6.25
2022-08-02T22:28:11.809Z,4.80
2022-08-02T22:30:43.312Z,7.60
2022-08-02T22:34:01.231Z,6.93
2022-08-02T22:36:46.275Z,6.90
2022-08-02T22:39:31.234Z,4.07
2022-08-02T22:42:17.400Z,4.70
2022-08-02T22:45:03.130Z,4.22
2022-08-02T22:47:51.026Z,4.80
2022-08-02T22:50:36.302Z,4.40
2022-08-02T22:53:35.555Z,5.10
2022-08-02T22:56:21.140Z,5.18
2022-08-02T22:58:50.344Z,4.05
2022-08-02T22:58:55.828Z,5.30
2022-08-02T23:02:02.711Z,4.38
2022-08-02T23:04:47.664Z,5.70
2022-08-02T23:07:36.274Z,5.97
2022-08-02T23:10:24.000Z,4.40
2022-08-02T23:13:08.943Z,4.20
2022-08-02T23:16:12.972Z,7.18
2022-08-02T23:19:16.350Z,6.18
2022-08-02T23:22:03.155Z,6.32
2022-08-02T23:24:49.330Z,6.45
2022-08-02T23:27:34.954Z,4.97
2022-08-02T23:30:20.433Z,8.68
2022-08-02T23:33:05.574Z,5.13
2022-08-02T23:35:50.317Z,5.95
2022-08-02T23:38:35.229Z,5.30
2022-08-02T23:41:20.444Z,5.50
2022-08-02T23:44:14.162Z,5.75
2022-08-02T23:47:00.127Z,6.10
2022-08-02T23:49:45.022Z,6.53
2022-08-02T23:52:29.753Z,5.32
2022-08-02T23:55:14.562Z,6.07
2022-08-02T23:57:59.820Z,4.85
